createdAt,value
2023-03-16T00:01:05.384Z,8.10
2023-03-16T00:03:51.205Z,8.10
2023-03-16T00:06:36.796Z,8.30
2023-03-16T00:09:22.372Z,8.50
2023-03-16T00:12:15.796Z,8.50
2023-03-16T00:15:02.122Z,8.60
2023-03-16T00:17:48.998Z,8.60
2023-03-16T00:20:34.452Z,8.80
2023-03-16T00:23:20.083Z,8.80
2023-03-16T00:26:07.480Z,8.70
2023-03-16T00:28:54.311Z,8.70
2023-03-16T00:31:40.368Z,8.60
2023-03-16T00:34:29.960Z,8.80
2023-03-16T00:37:16.695Z,8.90
2023-03-16T00:40:02.325Z,8.70
2023-03-16T00:42:47.741Z,8.90
2023-03-16T00:45:33.298Z,8.40
2023-03-16T00:48:18.703Z,8.50
2023-03-16T00:51:06.975Z,8.60
2023-03-16T00:53:52.374Z,8.60
2023-03-16T00:56:38.601Z,8.70
2023-03-16T00:59:26.180Z,8.40
2023-03-16T01:02:12.678Z,8.50
2023-03-16T01:04:58.352Z,8.20
2023-03-16T01:07:46.202Z,8.50
2023-03-16T01:10:31.675Z,8.40
2023-03-16T01:13:17.534Z,8.60
2023-03-16T01:16:04.159Z,8.70
2023-03-16T01:18:49.952Z,8.80
2023-03-16T01:21:38.190Z,8.50
2023-03-16T01:24:25.106Z,8.40
2023-03-16T01:27:11.100Z,8.40
2023-03-16T01:29:57.037Z,8.20
2023-03-16T01:32:44.708Z,8.50
2023-03-16T01:35:32.542Z,8.60
2023-03-16T01:38:18.304Z,8.50
2023-03-16T01:41:06.396Z,8.50
2023-03-16T01:43:53.663Z,8.60
2023-03-16T01:46:39.584Z,8.60
2023-03-16T01:49:28.134Z,8.50
2023-03-16T01:52:16.704Z,8.40
2023-03-16T01:55:06.237Z,8.60
2023-03-16T01:57:53.508Z,8.40
2023-03-16T02:00:41.768Z,8.20
2023-03-16T02:03:35.642Z,8.10
2023-03-16T02:06:32.329Z,8.30
2023-03-16T02:09:21.669Z,8.20
2023-03-16T02:12:09.758Z,8.10
2023-03-16T02:15:01.104Z,8.00
2023-03-16T02:17:48.733Z,8.20
2023-03-16T02:20:42.789Z,8.10
2023-03-16T02:23:28.910Z,8.10
2023-03-16T02:26:22.992Z,8.00
2023-03-16T02:29:18.980Z,7.70
2023-03-16T02:32:08.771Z,7.40
2023-03-16T02:35:00.384Z,7.60
2023-03-16T02:37:46.157Z,7.80
2023-03-16T02:40:34.400Z,7.70
2023-03-16T02:43:33.272Z,7.90
2023-03-16T02:46:39.971Z,8.20
2023-03-16T02:49:37.427Z,8.20
2023-03-16T02:52:23.939Z,8.20
2023-03-16T02:55:11.001Z,8.30
2023-03-16T02:57:56.386Z,8.30
2023-03-16T03:00:42.977Z,8.40
2023-03-16T03:03:29.191Z,8.20
2023-03-16T03:06:16.610Z,8.20
2023-03-16T03:09:02.796Z,8.20
2023-03-16T03:11:50.598Z,8.40
2023-03-16T03:14:39.416Z,8.10
2023-03-16T03:17:30.050Z,7.80
2023-03-16T03:20:17.788Z,7.90
2023-03-16T03:23:05.518Z,8.00
2023-03-16T03:25:51.227Z,7.80
2023-03-16T03:28:37.484Z,7.80
2023-03-16T03:31:23.515Z,7.80
2023-03-16T03:34:10.148Z,7.80
2023-03-16T03:36:55.894Z,8.00
2023-03-16T03:39:43.326Z,7.90
2023-03-16T03:42:31.110Z,8.10
2023-03-16T03:45:18.237Z,8.10
2023-03-16T03:48:04.754Z,8.00
2023-03-16T03:50:51.088Z,7.90
2023-03-16T03:53:54.147Z,7.90
2023-03-16T03:57:08.019Z,7.70
2023-03-16T03:59:53.633Z,7.90
2023-03-16T04:02:58.486Z,7.90
2023-03-16T04:05:51.963Z,7.80
2023-03-16T04:08:37.926Z,7.70
2023-03-16T04:11:27.640Z,7.90
2023-03-16T04:14:14.702Z,8.00
2023-03-16T04:17:00.629Z,7.80
2023-03-16T04:19:47.662Z,7.80
2023-03-16T04:22:35.474Z,7.70
2023-03-16T04:25:21.408Z,7.60
2023-03-16T04:28:08.385Z,7.40
2023-03-16T04:31:01.688Z,7.30
2023-03-16T04:33:54.720Z,7.10
2023-03-16T04:36:42.168Z,7.10
2023-03-16T04:39:28.816Z,7.20
2023-03-16T04:42:14.877Z,7.00
2023-03-16T04:45:00.940Z,7.30
2023-03-16T04:47:49.665Z,7.20
2023-03-16T04:50:36.036Z,7.30
2023-03-16T04:53:21.841Z,7.50
2023-03-16T04:56:19.654Z,7.80
2023-03-16T04:59:11.076Z,7.70
2023-03-16T05:02:20.121Z,7.70
2023-03-16T05:05:09.197Z,7.80
2023-03-16T05:07:59.759Z,8.00
2023-03-16T05:10:48.555Z,8.10
2023-03-16T05:13:35.361Z,8.10
2023-03-16T05:16:21.419Z,8.10
2023-03-16T05:19:07.330Z,7.70
2023-03-16T05:21:56.909Z,7.80
2023-03-16T05:24:43.107Z,8.10
2023-03-16T05:27:30.061Z,7.90
2023-03-16T05:30:17.429Z,7.70
2023-03-16T05:33:03.616Z,7.80
2023-03-16T05:35:51.082Z,7.60
2023-03-16T05:38:39.322Z,7.70
2023-03-16T05:41:28.314Z,7.60
2023-03-16T05:44:21.525Z,7.80
2023-03-16T05:47:45.373Z,7.70
2023-03-16T05:50:31.603Z,7.80
2023-03-16T05:53:17.434Z,7.90
2023-03-16T05:56:05.911Z,8.00
2023-03-16T05:58:56.819Z,8.10
2023-03-16T06:01:43.644Z,7.80
2023-03-16T06:04:30.459Z,7.80
2023-03-16T06:07:17.108Z,7.70
2023-03-16T06:10:07.612Z,7.60
2023-03-16T06:12:55.249Z,7.60
2023-03-16T06:15:41.681Z,7.50
2023-03-16T06:18:27.388Z,7.50
2023-03-16T06:21:13.277Z,7.50
2023-03-16T06:24:00.487Z,7.50
2023-03-16T06:26:46.175Z,7.50
2023-03-16T06:29:34.220Z,7.50
2023-03-16T06:32:22.012Z,7.40
2023-03-16T06:35:09.482Z,7.80
2023-03-16T06:37:58.764Z,7.80
2023-03-16T06:41:00.139Z,8.00
2023-03-16T06:43:45.852Z,8.00
2023-03-16T06:46:33.560Z,7.90
2023-03-16T06:49:21.896Z,8.20
2023-03-16T06:52:10.488Z,8.00
2023-03-16T06:54:58.500Z,7.90
2023-03-16T06:57:46.607Z,7.90
2023-03-16T07:00:34.128Z,7.90
2023-03-16T07:05:01.360Z,7.90
2023-03-16T07:07:47.583Z,8.30
2023-03-16T07:10:34.633Z,8.20
2023-03-16T07:13:20.679Z,8.30
2023-03-16T07:16:06.756Z,8.50
2023-03-16T07:18:52.596Z,8.40
2023-03-16T07:21:41.905Z,8.60
2023-03-16T07:24:33.078Z,8.50
2023-03-16T07:27:19.891Z,8.40
2023-03-16T07:30:07.262Z,8.10
2023-03-16T07:32:57.494Z,8.30
2023-03-16T07:35:45.050Z,8.30
2023-03-16T07:38:32.775Z,8.60
2023-03-16T07:41:18.316Z,8.30
2023-03-16T07:44:05.647Z,8.20
2023-03-16T07:46:51.693Z,8.10
2023-03-16T07:49:38.643Z,8.30
2023-03-16T07:52:24.459Z,8.30
2023-03-16T07:55:13.161Z,8.40
2023-03-16T07:57:59.731Z,8.10
2023-03-16T08:00:51.268Z,8.00
2023-03-16T08:03:38.680Z,7.90
2023-03-16T08:06:25.984Z,7.90
2023-03-16T08:09:13.510Z,7.70
2023-03-16T08:12:04.549Z,7.60
2023-03-16T08:14:52.413Z,7.90
2023-03-16T08:17:44.392Z,7.60
2023-03-16T08:20:36.480Z,7.60
2023-03-16T08:23:24.167Z,7.80
2023-03-16T08:26:10.982Z,7.90
2023-03-16T08:29:03.138Z,8.20
2023-03-16T08:31:56.612Z,8.20
2023-03-16T08:34:48.385Z,8.10
2023-03-16T08:37:34.752Z,8.10
2023-03-16T08:40:22.637Z,8.00
2023-03-16T08:43:09.183Z,8.30
2023-03-16T08:45:56.569Z,8.60
2023-03-16T08:48:46.115Z,8.90
2023-03-16T08:51:33.810Z,9.00
2023-03-16T08:54:19.666Z,9.20
2023-03-16T08:57:05.657Z,9.20
2023-03-16T08:59:51.532Z,9.20
2023-03-16T09:02:39.220Z,9.70
2023-03-16T09:05:25.717Z,9.70
2023-03-16T09:08:12.746Z,10.20
2023-03-16T09:11:02.317Z,9.80
2023-03-16T09:13:48.355Z,10.00
2023-03-16T09:16:35.121Z,10.00
2023-03-16T09:19:22.947Z,9.90
2023-03-16T09:22:08.514Z,9.80
2023-03-16T09:24:54.865Z,9.80
2023-03-16T09:27:40.874Z,9.80
2023-03-16T09:30:26.863Z,9.80
2023-03-16T09:33:13.348Z,9.70
2023-03-16T09:36:01.006Z,9.70
2023-03-16T09:38:46.614Z,9.70
2023-03-16T09:41:42.833Z,10.00
2023-03-16T09:44:38.601Z,10.00
2023-03-16T09:47:30.336Z,10.00
2023-03-16T09:50:24.438Z,10.10
2023-03-16T09:53:21.101Z,9.90
2023-03-16T09:56:11.257Z,9.90
2023-03-16T09:58:59.005Z,10.00
2023-03-16T10:01:57.123Z,10.10
2023-03-16T10:04:53.186Z,10.50
2023-03-16T10:07:48.144Z,10.70
2023-03-16T10:10:55.401Z,10.80
2023-03-16T10:13:47.688Z,11.20
2023-03-16T10:16:38.688Z,12.00
2023-03-16T10:19:34.041Z,12.80
2023-03-16T10:22:22.245Z,13.50
2023-03-16T10:25:15.534Z,13.60
2023-03-16T10:28:02.622Z,13.60
2023-03-16T10:30:50.404Z,13.40
2023-03-16T10:33:39.630Z,14.00
2023-03-16T10:36:30.941Z,14.10
2023-03-16T10:39:17.599Z,14.00
2023-03-16T10:42:03.133Z,15.00
2023-03-16T10:44:56.897Z,15.50
2023-03-16T10:47:42.803Z,16.00
2023-03-16T10:50:28.722Z,16.20
2023-03-16T10:53:19.628Z,15.70
2023-03-16T10:56:13.078Z,15.40
2023-03-16T10:59:00.287Z,15.20
2023-03-16T11:01:50.073Z,14.90
2023-03-16T11:04:35.935Z,15.20
2023-03-16T11:07:29.540Z,15.60
2023-03-16T11:10:27.732Z,15.90
2023-03-16T11:13:17.636Z,15.70
2023-03-16T11:16:16.839Z,15.30
2023-03-16T11:19:14.923Z,15.10
2023-03-16T11:22:03.956Z,15.10
2023-03-16T11:24:53.850Z,15.20
2023-03-16T11:27:46.054Z,14.80
2023-03-16T11:30:36.957Z,14.70
2023-03-16T11:33:23.059Z,14.60
2023-03-16T11:36:27.975Z,14.80
2023-03-16T11:39:16.137Z,14.60
2023-03-16T11:42:13.998Z,14.10
2023-03-16T11:45:04.354Z,14.30
2023-03-16T11:48:03.512Z,14.60
2023-03-16T11:50:54.266Z,14.80
2023-03-16T11:53:46.863Z,14.70
2023-03-16T11:56:33.866Z,14.90
2023-03-16T11:59:33.984Z,15.00
2023-03-16T12:02:29.296Z,15.60
2023-03-16T12:05:33.127Z,15.80
2023-03-16T12:08:25.626Z,15.70
2023-03-16T12:11:14.791Z,16.10
2023-03-16T12:14:05.763Z,16.40
2023-03-16T12:16:54.224Z,16.00
2023-03-16T12:19:41.765Z,16.20
2023-03-16T12:22:29.512Z,16.50
2023-03-16T12:25:19.916Z,16.90
2023-03-16T12:28:16.742Z,16.90
2023-03-16T12:31:10.553Z,17.40
2023-03-16T12:34:08.369Z,18.10
2023-03-16T12:37:10.221Z,18.10
2023-03-16T12:40:09.179Z,18.80
2023-03-16T12:43:11.178Z,19.40
2023-03-16T12:46:04.476Z,19.70
2023-03-16T12:48:55.599Z,20.40
2023-03-16T12:51:43.265Z,20.50
2023-03-16T12:54:29.632Z,19.30
2023-03-16T12:57:17.183Z,18.60
2023-03-16T13:00:09.509Z,18.50
2023-03-16T13:02:56.277Z,18.50
2023-03-16T13:05:46.459Z,18.00
2023-03-16T13:08:42.647Z,18.10
2023-03-16T13:11:28.745Z,18.30
2023-03-16T13:14:17.822Z,17.80
2023-03-16T13:17:27.825Z,17.10
2023-03-16T13:20:31.094Z,16.30
2023-03-16T13:23:23.858Z,15.90
2023-03-16T13:26:16.421Z,16.10
2023-03-16T13:29:16.601Z,16.50
2023-03-16T13:32:07.448Z,16.60
2023-03-16T13:34:58.848Z,16.60
2023-03-16T13:37:45.795Z,16.10
2023-03-16T13:40:32.120Z,15.80
2023-03-16T13:43:21.705Z,15.90
2023-03-16T13:46:15.057Z,16.00
2023-03-16T13:49:01.213Z,16.10
2023-03-16T13:51:49.494Z,16.40
2023-03-16T13:54:37.365Z,16.60
2023-03-16T13:57:25.748Z,16.40
2023-03-16T14:00:18.132Z,16.60
2023-03-16T14:03:16.208Z,16.60
2023-03-16T14:06:02.372Z,16.60
2023-03-16T14:08:53.492Z,16.80
2023-03-16T14:11:39.634Z,16.90
2023-03-16T14:14:28.992Z,16.90
2023-03-16T14:17:17.663Z,17.10
2023-03-16T14:20:04.256Z,17.10
2023-03-16T14:22:53.553Z,17.20
2023-03-16T14:25:40.748Z,17.40
2023-03-16T14:28:32.398Z,17.10
2023-03-16T14:31:20.916Z,16.90
2023-03-16T14:34:19.973Z,16.90
2023-03-16T14:37:07.696Z,17.10
2023-03-16T14:40:01.654Z,16.70
2023-03-16T14:42:49.002Z,16.80
2023-03-16T14:45:37.482Z,16.80
2023-03-16T14:48:24.012Z,16.90
2023-03-16T14:51:13.294Z,17.20
2023-03-16T14:53:58.655Z,17.20
2023-03-16T14:56:48.327Z,17.10
2023-03-16T14:59:35.185Z,17.10
2023-03-16T15:02:23.047Z,17.10
2023-03-16T15:05:09.684Z,17.00
2023-03-16T15:07:55.569Z,17.20
2023-03-16T15:10:41.379Z,17.10
2023-03-16T15:13:42.171Z,17.40
2023-03-16T15:16:29.853Z,17.30
2023-03-16T15:19:15.344Z,17.10
2023-03-16T15:22:01.678Z,16.90
2023-03-16T15:24:47.699Z,17.20
2023-03-16T15:27:34.870Z,17.10
2023-03-16T15:30:22.034Z,17.20
2023-03-16T15:33:09.945Z,16.90
2023-03-16T15:35:57.115Z,16.90
2023-03-16T15:38:44.591Z,16.90
2023-03-16T15:41:41.399Z,16.70
2023-03-16T15:44:30.565Z,16.70
2023-03-16T15:47:16.612Z,16.40
2023-03-16T15:50:04.389Z,16.60
2023-03-16T15:52:52.850Z,17.00
2023-03-16T15:55:40.072Z,17.00
2023-03-16T15:58:27.673Z,16.70
2023-03-16T16:01:20.332Z,16.60
2023-03-16T16:04:12.444Z,16.50
2023-03-16T16:07:00.527Z,16.50
2023-03-16T16:09:46.778Z,16.70
2023-03-16T16:12:33.512Z,16.70
2023-03-16T16:15:21.631Z,16.30
2023-03-16T16:18:21.683Z,16.40
2023-03-16T16:21:09.086Z,16.50
2023-03-16T16:23:56.781Z,16.20
2023-03-16T16:26:52.837Z,16.20
2023-03-16T16:29:40.092Z,16.20
2023-03-16T16:32:26.038Z,16.60
2023-03-16T16:35:13.171Z,16.60
2023-03-16T16:37:58.865Z,16.70
2023-03-16T16:40:46.310Z,16.80
2023-03-16T16:43:33.750Z,16.50
2023-03-16T16:46:21.607Z,16.50
2023-03-16T16:49:12.852Z,16.70
2023-03-16T16:51:58.834Z,16.60
2023-03-16T16:54:44.560Z,16.50
2023-03-16T16:57:34.048Z,16.70
2023-03-16T17:00:23.124Z,16.50
2023-03-16T17:03:21.468Z,16.40
2023-03-16T17:06:15.479Z,16.00
2023-03-16T17:09:01.483Z,16.20
2023-03-16T17:11:47.740Z,16.10
2023-03-16T17:14:36.185Z,16.10
2023-03-16T17:17:22.386Z,15.80
2023-03-16T17:20:15.448Z,15.80
2023-03-16T17:23:01.549Z,15.80
2023-03-16T17:25:59.647Z,15.50
2023-03-16T17:28:50.429Z,15.30
2023-03-16T17:31:40.138Z,15.30
2023-03-16T17:34:27.814Z,15.10
2023-03-16T17:37:15.224Z,15.00
2023-03-16T17:40:00.893Z,15.00
2023-03-16T17:42:47.771Z,14.80
2023-03-16T17:45:33.462Z,14.70
2023-03-16T17:48:22.245Z,14.70
2023-03-16T17:51:13.007Z,14.60
2023-03-16T17:53:59.117Z,14.40
2023-03-16T17:56:47.338Z,14.20
2023-03-16T17:59:33.310Z,14.10
2023-03-16T18:02:35.772Z,13.80
2023-03-16T18:05:25.599Z,13.50
2023-03-16T18:08:16.123Z,13.30
2023-03-16T18:11:05.143Z,13.30
2023-03-16T18:13:52.038Z,13.40
2023-03-16T18:16:38.329Z,13.20
2023-03-16T18:19:31.332Z,13.20
2023-03-16T18:22:22.321Z,12.80
2023-03-16T18:25:32.429Z,12.80
2023-03-16T18:28:19.655Z,12.80
2023-03-16T18:31:07.752Z,12.70
2023-03-16T18:33:56.632Z,13.10
2023-03-16T18:36:45.380Z,12.90
2023-03-16T18:39:32.879Z,12.90
2023-03-16T18:42:19.688Z,13.00
2023-03-16T18:45:09.756Z,13.00
2023-03-16T18:47:56.496Z,12.80
2023-03-16T18:50:43.672Z,12.70
2023-03-16T18:53:29.771Z,12.70
2023-03-16T18:56:22.789Z,12.70
2023-03-16T18:59:08.728Z,12.70
2023-03-16T19:01:54.530Z,12.50
2023-03-16T19:04:40.601Z,12.40
2023-03-16T19:07:32.810Z,12.40
2023-03-16T19:10:23.690Z,12.40
2023-03-16T19:13:15.176Z,12.30
2023-03-16T19:16:03.273Z,12.40
2023-03-16T19:18:49.704Z,12.30
2023-03-16T19:21:35.924Z,12.30
2023-03-16T19:24:25.617Z,12.20
2023-03-16T19:27:19.901Z,12.10
2023-03-16T19:30:21.374Z,11.90
2023-03-16T19:33:17.617Z,11.80
2023-03-16T19:36:04.735Z,12.00
2023-03-16T19:38:50.663Z,11.90
2023-03-16T19:41:38.326Z,12.20
2023-03-16T19:44:26.146Z,12.10
2023-03-16T19:47:24.681Z,12.00
2023-03-16T19:50:15.817Z,12.10
2023-03-16T19:53:02.303Z,12.20
2023-03-16T19:55:49.453Z,11.80
2023-03-16T19:58:38.660Z,11.80
2023-03-16T20:01:32.273Z,12.10
2023-03-16T20:04:23.149Z,12.20
2023-03-16T20:07:15.173Z,12.00
2023-03-16T20:10:01.066Z,12.00
2023-03-16T20:12:48.112Z,12.00
2023-03-16T20:15:35.389Z,12.00
2023-03-16T20:18:21.558Z,12.30
2023-03-16T20:21:13.518Z,12.10
2023-03-16T20:23:58.952Z,12.60
2023-03-16T20:26:47.084Z,12.30
2023-03-16T20:29:34.126Z,12.20
2023-03-16T20:32:22.213Z,12.40
2023-03-16T20:35:15.268Z,12.10
2023-03-16T20:38:02.855Z,12.20
2023-03-16T20:40:52.300Z,12.10
2023-03-16T20:43:38.697Z,12.40
2023-03-16T20:46:26.661Z,12.10
2023-03-16T20:49:29.929Z,11.90
2023-03-16T20:52:17.471Z,11.80
2023-03-16T20:55:05.439Z,11.90
2023-03-16T20:57:52.559Z,12.00
2023-03-16T21:00:39.262Z,11.90
2023-03-16T21:03:27.534Z,12.00
2023-03-16T21:06:22.362Z,12.00
2023-03-16T21:09:09.772Z,12.00
2023-03-16T21:11:57.202Z,12.20
2023-03-16T21:14:42.824Z,12.20
2023-03-16T21:17:31.313Z,11.90
2023-03-16T21:20:19.425Z,11.80
2023-03-16T21:23:11.605Z,12.00
2023-03-16T21:25:59.470Z,11.80
2023-03-16T21:28:52.716Z,11.70
2023-03-16T21:31:38.262Z,11.50
2023-03-16T21:34:26.921Z,11.50
2023-03-16T21:37:14.245Z,11.50
2023-03-16T21:40:01.249Z,11.60
2023-03-16T21:42:47.707Z,11.30
2023-03-16T21:45:36.595Z,11.20
2023-03-16T21:48:25.216Z,11.30
2023-03-16T21:51:13.521Z,11.20
2023-03-16T21:53:59.565Z,11.10
2023-03-16T21:56:46.263Z,10.90
2023-03-16T21:59:32.130Z,10.80
2023-03-16T22:02:23.691Z,10.80
2023-03-16T22:05:31.440Z,10.70
2023-03-16T22:08:19.775Z,10.70
2023-03-16T22:11:15.524Z,10.50
2023-03-16T22:14:01.644Z,10.40
2023-03-16T22:16:47.993Z,10.70
2023-03-16T22:19:35.211Z,10.90
2023-03-16T22:22:21.247Z,10.80
2023-03-16T22:25:14.358Z,10.90
2023-03-16T22:28:00.237Z,10.70
2023-03-16T22:30:46.219Z,10.80
2023-03-16T22:33:35.679Z,10.90
2023-03-16T22:36:23.436Z,10.90
2023-03-16T22:39:12.953Z,10.80
2023-03-16T22:41:58.315Z,10.90
2023-03-16T22:44:43.843Z,10.90
2023-03-16T22:47:33.821Z,11.00
2023-03-16T22:50:24.290Z,11.10
2023-03-16T22:53:18.928Z,11.10
2023-03-16T22:56:05.906Z,11.20
2023-03-16T22:58:54.828Z,11.00
2023-03-16T23:01:43.519Z,10.80
2023-03-16T23:04:32.256Z,10.90
2023-03-16T23:07:18.256Z,11.20
2023-03-16T23:10:08.211Z,11.30
2023-03-16T23:12:54.436Z,11.20
2023-03-16T23:15:40.044Z,10.90
2023-03-16T23:18:26.834Z,10.90
2023-03-16T23:21:14.645Z,11.40
2023-03-16T23:24:04.234Z,11.40
2023-03-16T23:26:52.997Z,11.60
2023-03-16T23:29:38.913Z,11.80
2023-03-16T23:32:24.980Z,11.80
2023-03-16T23:35:17.914Z,11.80
2023-03-16T23:38:03.983Z,11.80
2023-03-16T23:40:49.867Z,11.50
2023-03-16T23:43:37.529Z,11.70
2023-03-16T23:46:25.926Z,11.50
2023-03-16T23:49:19.093Z,11.70
2023-03-16T23:52:05.448Z,11.90
2023-03-16T23:54:51.162Z,12.00
2023-03-16T23:57:37.222Z,11.80
